sensor_id;sensor_type;location;lat;lon;timestamp;P1;durP1;ratioP1;P2;durP2;ratioP2
20454;SDS011;10386;54.314;10.022;2023-05-07T00:02:05;27.37;;;13.13;;
20454;SDS011;10386;54.314;10.022;2023-05-07T00:04:32;28.43;;;11.73;;
20454;SDS011;10386;54.314;10.022;2023-05-07T00:07:03;25.90;;;11.63;;
20454;SDS011;10386;54.314;10.022;2023-05-07T00:09:30;34.57;;;11.77;;
20454;SDS011;10386;54.314;10.022;2023-05-07T00:11:57;24.10;;;11.60;;
20454;SDS011;10386;54.314;10.022;2023-05-07T00:14:23;23.40;;;10.83;;
20454;SDS011;10386;54.314;10.022;2023-05-07T00:16:50;31.43;;;12.20;;
20454;SDS011;10386;54.314;10.022;2023-05-07T00:19:17;25.10;;;11.40;;
20454;SDS011;10386;54.314;10.022;2023-05-07T00:21:44;26.60;;;12.77;;
20454;SDS011;10386;54.314;10.022;2023-05-07T00:24:12;27.43;;;12.57;;
20454;SDS011;10386;54.314;10.022;2023-05-07T00:26:38;23.50;;;11.53;;
20454;SDS011;10386;54.314;10.022;2023-05-07T00:29:05;27.37;;;11.80;;
20454;SDS011;10386;54.314;10.022;2023-05-07T00:31:32;26.43;;;11.57;;
20454;SDS011;10386;54.314;10.022;2023-05-07T00:33:59;21.97;;;11.27;;
20454;SDS011;10386;54.314;10.022;2023-05-07T00:36:25;23.83;;;11.20;;
20454;SDS011;10386;54.314;10.022;2023-05-07T00:38:53;24.10;;;11.33;;
20454;SDS011;10386;54.314;10.022;2023-05-07T00:41:21;25.87;;;11.80;;
20454;SDS011;10386;54.314;10.022;2023-05-07T00:43:47;19.40;;;10.83;;
20454;SDS011;10386;54.314;10.022;2023-05-07T00:46:14;23.37;;;10.90;;
20454;SDS011;10386;54.314;10.022;2023-05-07T00:48:42;22.63;;;10.53;;
20454;SDS011;10386;54.314;10.022;2023-05-07T00:51:09;21.77;;;11.90;;
20454;SDS011;10386;54.314;10.022;2023-05-07T00:53:37;22.70;;;11.20;;
20454;SDS011;10386;54.314;10.022;2023-05-07T00:56:05;22.70;;;11.50;;
20454;SDS011;10386;54.314;10.022;2023-05-07T00:58:33;20.70;;;11.07;;
20454;SDS011;10386;54.314;10.022;2023-05-07T01:01:00;26.03;;;11.50;;
20454;SDS011;10386;54.314;10.022;2023-05-07T01:03:28;24.83;;;11.70;;
20454;SDS011;10386;54.314;10.022;2023-05-07T01:05:57;23.43;;;12.23;;
20454;SDS011;10386;54.314;10.022;2023-05-07T01:08:26;22.10;;;11.03;;
20454;SDS011;10386;54.314;10.022;2023-05-07T01:10:56;21.70;;;11.30;;
20454;SDS011;10386;54.314;10.022;2023-05-07T01:13:24;21.77;;;10.93;;
20454;SDS011;10386;54.314;10.022;2023-05-07T01:15:51;25.83;;;10.53;;
20454;SDS011;10386;54.314;10.022;2023-05-07T01:18:18;21.33;;;11.33;;
20454;SDS011;10386;54.314;10.022;2023-05-07T01:20:45;21.07;;;10.93;;
20454;SDS011;10386;54.314;10.022;2023-05-07T01:23:12;25.57;;;11.40;;
20454;SDS011;10386;54.314;10.022;2023-05-07T01:25:39;21.20;;;10.80;;
20454;SDS011;10386;54.314;10.022;2023-05-07T01:28:06;19.43;;;11.07;;
20454;SDS011;10386;54.314;10.022;2023-05-07T01:30:33;28.23;;;12.13;;
20454;SDS011;10386;54.314;10.022;2023-05-07T01:33:08;22.33;;;11.30;;
20454;SDS011;10386;54.314;10.022;2023-05-07T01:35:41;23.07;;;11.10;;
20454;SDS011;10386;54.314;10.022;2023-05-07T01:38:11;20.70;;;10.90;;
20454;SDS011;10386;54.314;10.022;2023-05-07T01:40:38;19.23;;;11.97;;
20454;SDS011;10386;54.314;10.022;2023-05-07T01:43:05;22.37;;;11.67;;
20454;SDS011;10386;54.314;10.022;2023-05-07T01:45:33;22.67;;;11.47;;
20454;SDS011;10386;54.314;10.022;2023-05-07T01:48:01;21.10;;;11.70;;
20454;SDS011;10386;54.314;10.022;2023-05-07T01:50:30;22.60;;;11.40;;
20454;SDS011;10386;54.314;10.022;2023-05-07T01:52:58;20.63;;;11.30;;
20454;SDS011;10386;54.314;10.022;2023-05-07T01:55:25;25.50;;;11.10;;
20454;SDS011;10386;54.314;10.022;2023-05-07T01:57:52;22.53;;;11.80;;
20454;SDS011;10386;54.314;10.022;2023-05-07T02:00:19;17.73;;;10.43;;
20454;SDS011;10386;54.314;10.022;2023-05-07T02:02:46;20.57;;;11.83;;
20454;SDS011;10386;54.314;10.022;2023-05-07T02:05:15;20.50;;;11.07;;
20454;SDS011;10386;54.314;10.022;2023-05-07T02:07:41;21.97;;;11.27;;
20454;SDS011;10386;54.314;10.022;2023-05-07T02:10:08;23.00;;;11.40;;
20454;SDS011;10386;54.314;10.022;2023-05-07T02:12:36;18.63;;;10.70;;
20454;SDS011;10386;54.314;10.022;2023-05-07T02:15:03;19.50;;;11.00;;
20454;SDS011;10386;54.314;10.022;2023-05-07T02:17:30;19.60;;;11.67;;
20454;SDS011;10386;54.314;10.022;2023-05-07T02:19:59;19.97;;;11.03;;
20454;SDS011;10386;54.314;10.022;2023-05-07T02:22:26;20.77;;;12.33;;
20454;SDS011;10386;54.314;10.022;2023-05-07T02:24:53;16.83;;;10.47;;
20454;SDS011;10386;54.314;10.022;2023-05-07T02:27:23;21.13;;;11.77;;
20454;SDS011;10386;54.314;10.022;2023-05-07T02:29:49;20.37;;;11.10;;
20454;SDS011;10386;54.314;10.022;2023-05-07T02:32:16;17.03;;;11.37;;
20454;SDS011;10386;54.314;10.022;2023-05-07T02:34:43;18.20;;;10.13;;
20454;SDS011;10386;54.314;10.022;2023-05-07T02:37:10;17.67;;;10.43;;
20454;SDS011;10386;54.314;10.022;2023-05-07T02:39:37;16.77;;;10.07;;
20454;SDS011;10386;54.314;10.022;2023-05-07T02:42:03;21.67;;;10.60;;
20454;SDS011;10386;54.314;10.022;2023-05-07T02:44:30;23.83;;;11.00;;
20454;SDS011;10386;54.314;10.022;2023-05-07T02:46:57;18.87;;;9.77;;
20454;SDS011;10386;54.314;10.022;2023-05-07T02:49:24;19.40;;;10.70;;
20454;SDS011;10386;54.314;10.022;2023-05-07T02:51:51;19.63;;;10.80;;
20454;SDS011;10386;54.314;10.022;2023-05-07T02:54:17;18.93;;;10.37;;
20454;SDS011;10386;54.314;10.022;2023-05-07T02:56:44;18.30;;;10.50;;
20454;SDS011;10386;54.314;10.022;2023-05-07T02:59:11;17.27;;;9.67;;
20454;SDS011;10386;54.314;10.022;2023-05-07T03:01:38;17.07;;;9.87;;
20454;SDS011;10386;54.314;10.022;2023-05-07T03:04:05;18.10;;;10.10;;
20454;SDS011;10386;54.314;10.022;2023-05-07T03:06:32;14.33;;;9.80;;
20454;SDS011;10386;54.314;10.022;2023-05-07T03:08:58;17.10;;;10.83;;
20454;SDS011;10386;54.314;10.022;2023-05-07T03:11:25;15.80;;;9.33;;
20454;SDS011;10386;54.314;10.022;2023-05-07T03:13:52;15.43;;;9.23;;
20454;SDS011;10386;54.314;10.022;2023-05-07T03:16:22;15.17;;;9.83;;
20454;SDS011;10386;54.314;10.022;2023-05-07T03:18:48;17.07;;;10.40;;
20454;SDS011;10386;54.314;10.022;2023-05-07T03:21:15;14.77;;;9.00;;
20454;SDS011;10386;54.314;10.022;2023-05-07T03:23:42;18.63;;;10.57;;
20454;SDS011;10386;54.314;10.022;2023-05-07T03:26:09;16.70;;;9.93;;
20454;SDS011;10386;54.314;10.022;2023-05-07T03:28:36;15.27;;;9.67;;
20454;SDS011;10386;54.314;10.022;2023-05-07T03:31:03;17.87;;;10.07;;
20454;SDS011;10386;54.314;10.022;2023-05-07T03:33:32;14.67;;;9.90;;
20454;SDS011;10386;54.314;10.022;2023-05-07T03:35:59;18.10;;;9.60;;
20454;SDS011;10386;54.314;10.022;2023-05-07T03:38:26;15.77;;;10.23;;
20454;SDS011;10386;54.314;10.022;2023-05-07T03:40:53;16.30;;;9.73;;
20454;SDS011;10386;54.314;10.022;2023-05-07T03:43:20;15.20;;;9.87;;
20454;SDS011;10386;54.314;10.022;2023-05-07T03:45:46;15.50;;;10.00;;
20454;SDS011;10386;54.314;10.022;2023-05-07T03:48:13;14.53;;;9.73;;
20454;SDS011;10386;54.314;10.022;2023-05-07T03:50:40;13.03;;;8.73;;
20454;SDS011;10386;54.314;10.022;2023-05-07T03:53:07;17.50;;;9.73;;
20454;SDS011;10386;54.314;10.022;2023-05-07T03:55:33;17.43;;;9.07;;
20454;SDS011;10386;54.314;10.022;2023-05-07T03:58:00;14.43;;;9.57;;
20454;SDS011;10386;54.314;10.022;2023-05-07T04:00:27;14.63;;;8.87;;
20454;SDS011;10386;54.314;10.022;2023-05-07T04:02:53;18.00;;;9.80;;
20454;SDS011;10386;54.314;10.022;2023-05-07T04:05:20;15.40;;;9.40;;
20454;SDS011;10386;54.314;10.022;2023-05-07T04:07:47;16.13;;;9.67;;
20454;SDS011;10386;54.314;10.022;2023-05-07T04:10:14;16.63;;;9.07;;
20454;SDS011;10386;54.314;10.022;2023-05-07T04:12:41;16.60;;;9.43;;
20454;SDS011;10386;54.314;10.022;2023-05-07T04:15:08;13.83;;;9.03;;
20454;SDS011;10386;54.314;10.022;2023-05-07T04:17:35;15.63;;;9.80;;
20454;SDS011;10386;54.314;10.022;2023-05-07T04:20:02;17.40;;;8.83;;
20454;SDS011;10386;54.314;10.022;2023-05-07T04:22:29;15.23;;;9.53;;
20454;SDS011;10386;54.314;10.022;2023-05-07T04:24:55;13.40;;;8.87;;
20454;SDS011;10386;54.314;10.022;2023-05-07T04:27:22;16.63;;;9.33;;
20454;SDS011;10386;54.314;10.022;2023-05-07T04:29:49;15.67;;;9.07;;
20454;SDS011;10386;54.314;10.022;2023-05-07T04:32:16;14.97;;;9.63;;
20454;SDS011;10386;54.314;10.022;2023-05-07T04:34:42;15.77;;;9.27;;
20454;SDS011;10386;54.314;10.022;2023-05-07T04:37:09;16.70;;;9.80;;
20454;SDS011;10386;54.314;10.022;2023-05-07T04:39:36;15.97;;;8.97;;
20454;SDS011;10386;54.314;10.022;2023-05-07T04:42:03;14.23;;;9.33;;
20454;SDS011;10386;54.314;10.022;2023-05-07T04:44:30;12.87;;;8.77;;
20454;SDS011;10386;54.314;10.022;2023-05-07T04:46:57;13.77;;;8.80;;
20454;SDS011;10386;54.314;10.022;2023-05-07T04:49:24;17.10;;;9.03;;
20454;SDS011;10386;54.314;10.022;2023-05-07T04:51:50;10.47;;;7.77;;
20454;SDS011;10386;54.314;10.022;2023-05-07T04:54:17;12.70;;;8.10;;
20454;SDS011;10386;54.314;10.022;2023-05-07T04:56:44;12.57;;;7.73;;
20454;SDS011;10386;54.314;10.022;2023-05-07T04:59:11;12.73;;;8.17;;
20454;SDS011;10386;54.314;10.022;2023-05-07T05:01:38;13.30;;;8.00;;
20454;SDS011;10386;54.314;10.022;2023-05-07T05:04:04;11.10;;;7.53;;
20454;SDS011;10386;54.314;10.022;2023-05-07T05:06:31;12.73;;;8.43;;
20454;SDS011;10386;54.314;10.022;2023-05-07T05:08:58;12.47;;;8.17;;
20454;SDS011;10386;54.314;10.022;2023-05-07T05:11:25;14.60;;;8.13;;
20454;SDS011;10386;54.314;10.022;2023-05-07T05:13:52;13.77;;;8.23;;
20454;SDS011;10386;54.314;10.022;2023-05-07T05:16:18;13.00;;;8.40;;
20454;SDS011;10386;54.314;10.022;2023-05-07T05:18:45;13.63;;;8.40;;
20454;SDS011;10386;54.314;10.022;2023-05-07T05:21:12;16.20;;;8.67;;
20454;SDS011;10386;54.314;10.022;2023-05-07T05:23:41;15.30;;;8.47;;
20454;SDS011;10386;54.314;10.022;2023-05-07T05:26:08;12.77;;;8.70;;
20454;SDS011;10386;54.314;10.022;2023-05-07T05:28:34;15.20;;;9.07;;
20454;SDS011;10386;54.314;10.022;2023-05-07T05:31:01;13.53;;;8.50;;
20454;SDS011;10386;54.314;10.022;2023-05-07T05:33:28;16.60;;;9.27;;
20454;SDS011;10386;54.314;10.022;2023-05-07T05:35:55;17.47;;;9.20;;
20454;SDS011;10386;54.314;10.022;2023-05-07T05:38:23;17.20;;;9.00;;
20454;SDS011;10386;54.314;10.022;2023-05-07T05:40:49;14.13;;;9.40;;
20454;SDS011;10386;54.314;10.022;2023-05-07T05:43:16;19.30;;;8.93;;
20454;SDS011;10386;54.314;10.022;2023-05-07T05:45:43;13.10;;;9.30;;
20454;SDS011;10386;54.314;10.022;2023-05-07T05:48:10;13.97;;;9.03;;
20454;SDS011;10386;54.314;10.022;2023-05-07T05:50:36;15.97;;;9.53;;
20454;SDS011;10386;54.314;10.022;2023-05-07T05:53:03;15.83;;;8.73;;
20454;SDS011;10386;54.314;10.022;2023-05-07T05:55:30;16.73;;;8.83;;
20454;SDS011;10386;54.314;10.022;2023-05-07T05:58:01;14.73;;;8.37;;
20454;SDS011;10386;54.314;10.022;2023-05-07T06:00:29;15.57;;;8.73;;
20454;SDS011;10386;54.314;10.022;2023-05-07T06:02:56;11.87;;;7.93;;
20454;SDS011;10386;54.314;10.022;2023-05-07T06:05:23;13.93;;;8.00;;
20454;SDS011;10386;54.314;10.022;2023-05-07T06:07:50;13.37;;;8.30;;
20454;SDS011;10386;54.314;10.022;2023-05-07T06:10:17;13.37;;;8.50;;
20454;SDS011;10386;54.314;10.022;2023-05-07T06:12:44;12.93;;;7.47;;
20454;SDS011;10386;54.314;10.022;2023-05-07T06:15:11;15.23;;;7.63;;
20454;SDS011;10386;54.314;10.022;2023-05-07T06:17:37;12.17;;;7.90;;
20454;SDS011;10386;54.314;10.022;2023-05-07T06:20:04;12.60;;;7.90;;
20454;SDS011;10386;54.314;10.022;2023-05-07T06:22:33;16.70;;;8.53;;
20454;SDS011;10386;54.314;10.022;2023-05-07T06:24:59;14.50;;;8.10;;
20454;SDS011;10386;54.314;10.022;2023-05-07T06:27:26;14.07;;;7.77;;
20454;SDS011;10386;54.314;10.022;2023-05-07T06:29:54;13.33;;;7.70;;
20454;SDS011;10386;54.314;10.022;2023-05-07T06:32:21;12.30;;;7.50;;
20454;SDS011;10386;54.314;10.022;2023-05-07T06:34:47;11.63;;;7.30;;
20454;SDS011;10386;54.314;10.022;2023-05-07T06:37:14;12.37;;;7.37;;
20454;SDS011;10386;54.314;10.022;2023-05-07T06:39:41;11.87;;;7.30;;
20454;SDS011;10386;54.314;10.022;2023-05-07T06:42:08;12.03;;;7.10;;
20454;SDS011;10386;54.314;10.022;2023-05-07T06:44:34;10.77;;;7.60;;
20454;SDS011;10386;54.314;10.022;2023-05-07T06:47:01;12.90;;;7.03;;
20454;SDS011;10386;54.314;10.022;2023-05-07T06:49:31;11.47;;;6.70;;
20454;SDS011;10386;54.314;10.022;2023-05-07T06:52:01;9.50;;;6.50;;
20454;SDS011;10386;54.314;10.022;2023-05-07T06:54:28;11.57;;;6.97;;
20454;SDS011;10386;54.314;10.022;2023-05-07T06:56:55;8.67;;;5.83;;
20454;SDS011;10386;54.314;10.022;2023-05-07T06:59:23;10.97;;;6.80;;
20454;SDS011;10386;54.314;10.022;2023-05-07T07:01:50;9.73;;;6.67;;
20454;SDS011;10386;54.314;10.022;2023-05-07T07:04:16;11.10;;;7.13;;
20454;SDS011;10386;54.314;10.022;2023-05-07T07:06:43;9.13;;;6.50;;
20454;SDS011;10386;54.314;10.022;2023-05-07T07:09:10;12.53;;;6.80;;
20454;SDS011;10386;54.314;10.022;2023-05-07T07:11:37;10.67;;;6.30;;
20454;SDS011;10386;54.314;10.022;2023-05-07T07:14:04;16.87;;;6.60;;
20454;SDS011;10386;54.314;10.022;2023-05-07T07:16:31;10.53;;;6.80;;
20454;SDS011;10386;54.314;10.022;2023-05-07T07:18:58;11.03;;;7.17;;
20454;SDS011;10386;54.314;10.022;2023-05-07T07:21:25;11.13;;;7.97;;
20454;SDS011;10386;54.314;10.022;2023-05-07T07:23:52;11.13;;;7.30;;
20454;SDS011;10386;54.314;10.022;2023-05-07T07:26:19;10.73;;;7.47;;
20454;SDS011;10386;54.314;10.022;2023-05-07T07:28:45;11.40;;;7.50;;
20454;SDS011;10386;54.314;10.022;2023-05-07T07:31:12;12.80;;;7.33;;
20454;SDS011;10386;54.314;10.022;2023-05-07T07:33:39;12.63;;;6.93;;
20454;SDS011;10386;54.314;10.022;2023-05-07T07:36:06;11.33;;;6.60;;
20454;SDS011;10386;54.314;10.022;2023-05-07T07:38:34;14.63;;;7.83;;
20454;SDS011;10386;54.314;10.022;2023-05-07T07:41:01;10.93;;;6.77;;
20454;SDS011;10386;54.314;10.022;2023-05-07T07:43:28;10.97;;;6.60;;
20454;SDS011;10386;54.314;10.022;2023-05-07T07:45:58;8.67;;;6.33;;
20454;SDS011;10386;54.314;10.022;2023-05-07T07:48:24;10.63;;;6.77;;
20454;SDS011;10386;54.314;10.022;2023-05-07T07:50:51;10.10;;;6.50;;
20454;SDS011;10386;54.314;10.022;2023-05-07T07:53:18;9.93;;;6.43;;
20454;SDS011;10386;54.314;10.022;2023-05-07T07:55:45;8.93;;;6.20;;
20454;SDS011;10386;54.314;10.022;2023-05-07T07:58:12;9.17;;;6.43;;
20454;SDS011;10386;54.314;10.022;2023-05-07T08:00:39;12.27;;;6.20;;
20454;SDS011;10386;54.314;10.022;2023-05-07T08:03:08;10.50;;;6.13;;
20454;SDS011;10386;54.314;10.022;2023-05-07T08:05:35;7.00;;;4.97;;
20454;SDS011;10386;54.314;10.022;2023-05-07T08:08:02;8.23;;;5.70;;
20454;SDS011;10386;54.314;10.022;2023-05-07T08:10:29;9.83;;;5.33;;
20454;SDS011;10386;54.314;10.022;2023-05-07T08:13:00;7.97;;;5.00;;
20454;SDS011;10386;54.314;10.022;2023-05-07T08:15:28;9.60;;;5.07;;
20454;SDS011;10386;54.314;10.022;2023-05-07T08:17:55;7.30;;;5.33;;
20454;SDS011;10386;54.314;10.022;2023-05-07T08:20:23;5.77;;;4.70;;
20454;SDS011;10386;54.314;10.022;2023-05-07T08:22:51;5.67;;;4.80;;
20454;SDS011;10386;54.314;10.022;2023-05-07T08:25:17;6.37;;;4.80;;
20454;SDS011;10386;54.314;10.022;2023-05-07T08:27:44;5.87;;;4.30;;
20454;SDS011;10386;54.314;10.022;2023-05-07T08:30:11;7.70;;;5.40;;
20454;SDS011;10386;54.314;10.022;2023-05-07T08:32:38;6.50;;;4.93;;
20454;SDS011;10386;54.314;10.022;2023-05-07T08:35:06;6.73;;;4.83;;
20454;SDS011;10386;54.314;10.022;2023-05-07T08:37:33;9.20;;;6.00;;
20454;SDS011;10386;54.314;10.022;2023-05-07T08:39:59;8.43;;;5.87;;
20454;SDS011;10386;54.314;10.022;2023-05-07T08:42:26;8.73;;;5.70;;
20454;SDS011;10386;54.314;10.022;2023-05-07T08:44:54;10.80;;;5.87;;
20454;SDS011;10386;54.314;10.022;2023-05-07T08:47:27;12.20;;;5.57;;
20454;SDS011;10386;54.314;10.022;2023-05-07T08:50:00;9.77;;;5.80;;
20454;SDS011;10386;54.314;10.022;2023-05-07T08:52:28;7.77;;;5.50;;
20454;SDS011;10386;54.314;10.022;2023-05-07T08:54:55;8.20;;;4.97;;
20454;SDS011;10386;54.314;10.022;2023-05-07T08:57:22;7.53;;;5.37;;
20454;SDS011;10386;54.314;10.022;2023-05-07T08:59:50;7.60;;;5.80;;
20454;SDS011;10386;54.314;10.022;2023-05-07T09:02:17;8.23;;;5.13;;
20454;SDS011;10386;54.314;10.022;2023-05-07T09:04:44;7.83;;;4.97;;
20454;SDS011;10386;54.314;10.022;2023-05-07T09:07:11;9.40;;;5.33;;
20454;SDS011;10386;54.314;10.022;2023-05-07T09:09:38;8.07;;;5.17;;
20454;SDS011;10386;54.314;10.022;2023-05-07T09:12:05;7.67;;;5.30;;
20454;SDS011;10386;54.314;10.022;2023-05-07T09:14:32;9.23;;;5.80;;
20454;SDS011;10386;54.314;10.022;2023-05-07T09:16:58;7.47;;;5.30;;
20454;SDS011;10386;54.314;10.022;2023-05-07T09:19:26;5.57;;;4.53;;
20454;SDS011;10386;54.314;10.022;2023-05-07T09:22:03;6.33;;;4.90;;
20454;SDS011;10386;54.314;10.022;2023-05-07T09:24:33;7.17;;;4.97;;
20454;SDS011;10386;54.314;10.022;2023-05-07T09:27:04;8.27;;;5.07;;
20454;SDS011;10386;54.314;10.022;2023-05-07T09:29:32;7.93;;;5.33;;
20454;SDS011;10386;54.314;10.022;2023-05-07T09:32:03;8.67;;;5.67;;
20454;SDS011;10386;54.314;10.022;2023-05-07T09:34:33;6.17;;;5.07;;
20454;SDS011;10386;54.314;10.022;2023-05-07T09:37:04;6.57;;;4.90;;
20454;SDS011;10386;54.314;10.022;2023-05-07T09:39:41;6.43;;;4.57;;
20454;SDS011;10386;54.314;10.022;2023-05-07T09:42:09;5.67;;;5.07;;
20454;SDS011;10386;54.314;10.022;2023-05-07T09:44:37;8.40;;;4.60;;
20454;SDS011;10386;54.314;10.022;2023-05-07T09:47:05;5.87;;;4.83;;
20454;SDS011;10386;54.314;10.022;2023-05-07T09:49:33;6.37;;;4.27;;
20454;SDS011;10386;54.314;10.022;2023-05-07T09:52:03;5.80;;;4.50;;
20454;SDS011;10386;54.314;10.022;2023-05-07T09:54:32;5.00;;;4.50;;
20454;SDS011;10386;54.314;10.022;2023-05-07T09:57:01;5.00;;;4.03;;
20454;SDS011;10386;54.314;10.022;2023-05-07T09:59:29;5.50;;;4.43;;
20454;SDS011;10386;54.314;10.022;2023-05-07T10:01:58;4.60;;;4.17;;
20454;SDS011;10386;54.314;10.022;2023-05-07T10:04:30;6.60;;;4.47;;
20454;SDS011;10386;54.314;10.022;2023-05-07T10:06:58;5.20;;;4.30;;
20454;SDS011;10386;54.314;10.022;2023-05-07T10:09:26;6.30;;;4.73;;
20454;SDS011;10386;54.314;10.022;2023-05-07T10:11:53;6.87;;;4.20;;
20454;SDS011;10386;54.314;10.022;2023-05-07T10:14:21;5.20;;;4.00;;
20454;SDS011;10386;54.314;10.022;2023-05-07T10:16:48;4.53;;;4.13;;
20454;SDS011;10386;54.314;10.022;2023-05-07T10:19:15;6.07;;;4.23;;
20454;SDS011;10386;54.314;10.022;2023-05-07T10:21:54;6.60;;;4.73;;
20454;SDS011;10386;54.314;10.022;2023-05-07T10:24:26;4.47;;;4.07;;
20454;SDS011;10386;54.314;10.022;2023-05-07T10:26:57;6.17;;;4.23;;
20454;SDS011;10386;54.314;10.022;2023-05-07T10:35:00;6.97;;;4.40;;
20454;SDS011;10386;54.314;10.022;2023-05-07T10:37:29;6.13;;;4.40;;
20454;SDS011;10386;54.314;10.022;2023-05-07T10:40:04;4.90;;;4.17;;
20454;SDS011;10386;54.314;10.022;2023-05-07T10:42:33;7.50;;;4.07;;
20454;SDS011;10386;54.314;10.022;2023-05-07T10:45:11;7.83;;;4.43;;
20454;SDS011;10386;54.314;10.022;2023-05-07T10:50:46;4.23;;;3.83;;
20454;SDS011;10386;54.314;10.022;2023-05-07T10:55:43;5.27;;;3.57;;
20454;SDS011;10386;54.314;10.022;2023-05-07T10:58:26;4.20;;;3.60;;
20454;SDS011;10386;54.314;10.022;2023-05-07T11:00:59;4.20;;;3.80;;
20454;SDS011;10386;54.314;10.022;2023-05-07T11:03:27;5.63;;;3.80;;
20454;SDS011;10386;54.314;10.022;2023-05-07T11:08:54;4.23;;;3.80;;
20454;SDS011;10386;54.314;10.022;2023-05-07T11:15:06;3.97;;;3.53;;
20454;SDS011;10386;54.314;10.022;2023-05-07T11:17:07;3.90;;;3.50;;
20454;SDS011;10386;54.314;10.022;2023-05-07T11:19:54;4.43;;;3.20;;
20454;SDS011;10386;54.314;10.022;2023-05-07T11:25:02;3.57;;;3.10;;
20454;SDS011;10386;54.314;10.022;2023-05-07T11:27:30;2.93;;;2.57;;
20454;SDS011;10386;54.314;10.022;2023-05-07T11:29:57;3.57;;;3.27;;
20454;SDS011;10386;54.314;10.022;2023-05-07T11:32:28;3.43;;;3.13;;
20454;SDS011;10386;54.314;10.022;2023-05-07T11:34:57;3.10;;;2.90;;
20454;SDS011;10386;54.314;10.022;2023-05-07T11:37:25;3.07;;;2.87;;
20454;SDS011;10386;54.314;10.022;2023-05-07T11:40:03;3.03;;;2.77;;
20454;SDS011;10386;54.314;10.022;2023-05-07T11:42:36;2.83;;;2.60;;
20454;SDS011;10386;54.314;10.022;2023-05-07T11:45:04;4.07;;;2.70;;
20454;SDS011;10386;54.314;10.022;2023-05-07T11:47:33;3.63;;;2.77;;
20454;SDS011;10386;54.314;10.022;2023-05-07T11:50:04;4.27;;;2.50;;
20454;SDS011;10386;54.314;10.022;2023-05-07T11:52:34;2.93;;;2.73;;
20454;SDS011;10386;54.314;10.022;2023-05-07T11:55:01;3.37;;;2.70;;
20454;SDS011;10386;54.314;10.022;2023-05-07T11:57:32;2.87;;;2.57;;
20454;SDS011;10386;54.314;10.022;2023-05-07T12:00:00;2.73;;;2.40;;
20454;SDS011;10386;54.314;10.022;2023-05-07T12:02:33;2.43;;;2.23;;
20454;SDS011;10386;54.314;10.022;2023-05-07T12:05:01;4.30;;;2.50;;
20454;SDS011;10386;54.314;10.022;2023-05-07T12:07:28;4.50;;;2.47;;
20454;SDS011;10386;54.314;10.022;2023-05-07T12:09:56;2.93;;;2.30;;
20454;SDS011;10386;54.314;10.022;2023-05-07T12:12:22;2.60;;;2.23;;
20454;SDS011;10386;54.314;10.022;2023-05-07T12:14:49;3.03;;;2.20;;
20454;SDS011;10386;54.314;10.022;2023-05-07T12:17:16;2.53;;;2.33;;
20454;SDS011;10386;54.314;10.022;2023-05-07T12:19:44;4.90;;;2.67;;
20454;SDS011;10386;54.314;10.022;2023-05-07T12:22:11;2.90;;;2.40;;
20454;SDS011;10386;54.314;10.022;2023-05-07T12:24:49;3.37;;;2.17;;
20454;SDS011;10386;54.314;10.022;2023-05-07T12:27:23;2.10;;;2.00;;
20454;SDS011;10386;54.314;10.022;2023-05-07T12:29:50;3.13;;;2.40;;
20454;SDS011;10386;54.314;10.022;2023-05-07T12:32:18;3.93;;;2.30;;
20454;SDS011;10386;54.314;10.022;2023-05-07T12:34:46;2.90;;;2.00;;
20454;SDS011;10386;54.314;10.022;2023-05-07T12:37:15;3.40;;;1.83;;
20454;SDS011;10386;54.314;10.022;2023-05-07T12:39:49;2.60;;;2.27;;
20454;SDS011;10386;54.314;10.022;2023-05-07T12:42:32;2.50;;;2.30;;
20454;SDS011;10386;54.314;10.022;2023-05-07T12:45:11;3.03;;;2.10;;
20454;SDS011;10386;54.314;10.022;2023-05-07T12:47:43;4.70;;;2.10;;
20454;SDS011;10386;54.314;10.022;2023-05-07T12:50:14;2.47;;;1.90;;
20454;SDS011;10386;54.314;10.022;2023-05-07T12:52:42;1.97;;;1.77;;
20454;SDS011;10386;54.314;10.022;2023-05-07T12:55:14;2.93;;;2.17;;
20454;SDS011;10386;54.314;10.022;2023-05-07T12:57:43;2.33;;;2.13;;
20454;SDS011;10386;54.314;10.022;2023-05-07T13:00:12;4.80;;;2.00;;
20454;SDS011;10386;54.314;10.022;2023-05-07T13:02:40;3.53;;;2.00;;
20454;SDS011;10386;54.314;10.022;2023-05-07T13:05:08;2.20;;;2.00;;
20454;SDS011;10386;54.314;10.022;2023-05-07T13:07:35;2.90;;;2.10;;
20454;SDS011;10386;54.314;10.022;2023-05-07T13:10:04;2.47;;;2.13;;
20454;SDS011;10386;54.314;10.022;2023-05-07T13:12:31;3.27;;;2.10;;
20454;SDS011;10386;54.314;10.022;2023-05-07T13:14:58;4.73;;;2.03;;
20454;SDS011;10386;54.314;10.022;2023-05-07T13:17:25;3.03;;;2.10;;
20454;SDS011;10386;54.314;10.022;2023-05-07T13:19:52;2.40;;;1.80;;
20454;SDS011;10386;54.314;10.022;2023-05-07T13:22:19;2.03;;;1.80;;
20454;SDS011;10386;54.314;10.022;2023-05-07T13:24:46;1.90;;;1.80;;
20454;SDS011;10386;54.314;10.022;2023-05-07T13:27:15;5.30;;;2.23;;
20454;SDS011;10386;54.314;10.022;2023-05-07T13:29:41;3.00;;;1.90;;
20454;SDS011;10386;54.314;10.022;2023-05-07T13:32:08;3.90;;;2.13;;
20454;SDS011;10386;54.314;10.022;2023-05-07T13:34:35;3.47;;;2.13;;
20454;SDS011;10386;54.314;10.022;2023-05-07T13:37:03;2.97;;;2.20;;
20454;SDS011;10386;54.314;10.022;2023-05-07T13:39:30;2.20;;;1.90;;
20454;SDS011;10386;54.314;10.022;2023-05-07T13:41:57;3.13;;;2.00;;
20454;SDS011;10386;54.314;10.022;2023-05-07T13:44:23;2.40;;;1.97;;
20454;SDS011;10386;54.314;10.022;2023-05-07T13:46:50;2.20;;;2.00;;
20454;SDS011;10386;54.314;10.022;2023-05-07T13:49:17;3.30;;;2.20;;
20454;SDS011;10386;54.314;10.022;2023-05-07T13:51:44;2.07;;;1.90;;
20454;SDS011;10386;54.314;10.022;2023-05-07T13:54:11;2.03;;;1.90;;
20454;SDS011;10386;54.314;10.022;2023-05-07T13:56:38;3.00;;;1.80;;
20454;SDS011;10386;54.314;10.022;2023-05-07T13:59:08;2.03;;;1.83;;
20454;SDS011;10386;54.314;10.022;2023-05-07T14:01:34;2.30;;;2.10;;
20454;SDS011;10386;54.314;10.022;2023-05-07T14:04:01;2.40;;;2.00;;
20454;SDS011;10386;54.314;10.022;2023-05-07T14:06:28;4.03;;;2.00;;
20454;SDS011;10386;54.314;10.022;2023-05-07T14:08:55;3.63;;;2.20;;
20454;SDS011;10386;54.314;10.022;2023-05-07T14:11:24;2.50;;;2.00;;
20454;SDS011;10386;54.314;10.022;2023-05-07T14:13:51;2.33;;;2.13;;
20454;SDS011;10386;54.314;10.022;2023-05-07T14:16:23;3.45;;;1.92;;
20454;SDS011;10386;54.314;10.022;2023-05-07T14:18:50;3.33;;;2.10;;
20454;SDS011;10386;54.314;10.022;2023-05-07T14:21:16;2.53;;;2.00;;
20454;SDS011;10386;54.314;10.022;2023-05-07T14:23:43;2.57;;;1.87;;
20454;SDS011;10386;54.314;10.022;2023-05-07T14:26:10;2.92;;;1.92;;
20454;SDS011;10386;54.314;10.022;2023-05-07T14:28:36;3.50;;;1.80;;
20454;SDS011;10386;54.314;10.022;2023-05-07T14:31:05;1.90;;;1.80;;
20454;SDS011;10386;54.314;10.022;2023-05-07T14:33:33;2.30;;;2.10;;
20454;SDS011;10386;54.314;10.022;2023-05-07T14:36:00;3.30;;;1.77;;
20454;SDS011;10386;54.314;10.022;2023-05-07T14:38:26;5.67;;;1.83;;
20454;SDS011;10386;54.314;10.022;2023-05-07T14:40:53;2.73;;;1.73;;
20454;SDS011;10386;54.314;10.022;2023-05-07T14:43:22;3.80;;;2.00;;
20454;SDS011;10386;54.314;10.022;2023-05-07T14:45:48;2.10;;;1.90;;
20454;SDS011;10386;54.314;10.022;2023-05-07T14:48:16;2.27;;;1.90;;